This is the latest recevied weather packets stored in our database for station/object EA3FHP. If no packets are shown the sender has not sent any weather packets the latest 10 day(s).
| Time | Temp. | Humidity | Pressure | Rain* | Wind** | Luminosity | Snow |
|---|---|---|---|---|---|---|---|
| 1787563803 | 26.67° C | 64% | 1017.5 hPa | 0 mm | - | - | - |
| 1787563203 | 27.22° C | 63% | 1017.4 hPa | 0 mm | - | - | - |
| 1787562603 | 26.67° C | 63% | 1017.8 hPa | 0 mm | - | - | - |
| 1787562003 | 26.11° C | 63% | 1017.9 hPa | 0 mm | - | - | - |
| 1787561403 | 26.11° C | 66% | 1017.9 hPa | 0 mm | - | - | - |
| 1787560803 | 25° C | 71% | 1017.7 hPa | 0 mm | - | - | - |
| 1787560203 | 24.44° C | 73% | 1017.5 hPa | 0 mm | - | - | - |
| 1787559603 | 23.89° C | 75% | 1017.4 hPa | 0 mm | - | - | - |
| 1787559003 | 23.89° C | 75% | 1017.6 hPa | 0 mm | - | - | - |
| 1787558403 | 23.33° C | 78% | 1017.7 hPa | 0 mm | - | - | - |
| 1787557803 | 22.78° C | 77% | 1017.9 hPa | 0 mm | - | - | - |
| 1787557203 | 22.22° C | 79% | 1018 hPa | 0 mm | - | - | - |
| 1787556603 | 21.67° C | 82% | 1018 hPa | 0 mm | - | - | - |
| 1787556004 | 21.11° C | 82% | 1018.2 hPa | 0 mm | - | - | - |
| 1787555403 | 20° C | 86% | 1018.3 hPa | 0 mm | - | - | - |
| 1787554804 | 19.44° C | 89% | 1018.5 hPa | 0 mm | - | - | - |
| 1787554203 | 18.89° C | 92% | 1018.3 hPa | 0 mm | - | - | - |
| 1787553603 | 18.89° C | 93% | 1018.1 hPa | 0 mm | - | - | - |
| 1787553004 | 18.33° C | 93% | 1017.9 hPa | 0 mm | - | - | - |
| 1787552403 | 18.33° C | 93% | 1017.8 hPa | 0 mm | - | - | - |
| 1787551803 | 17.78° C | 93% | 1017.8 hPa | 0 mm | - | - | - |
| 1787551203 | 17.22° C | 93% | 1017.8 hPa | 0 mm | - | - | - |
| 1787550603 | 17.22° C | 93% | 1018 hPa | 0 mm | - | - | - |
| 1787550003 | 17.22° C | 93% | 1017.6 hPa | 0 mm | - | - | - |
| 1787549403 | 17.22° C | 93% | 1017.7 hPa | 0 mm | - | - | - |
* Rain latest hour (hover to see other rain measurements)
** Current wind speed in m/s (hover to see current wind gust speed)